Time;durP1;ratioP1;P1;durP2;ratioP2;P2;SDS_P1;SDS_P2;PMS_P1;PMS_P2;Temp;Humidity;BMP_temperature;BMP_pressure;BME280_temperature;BME280_humidity;BME280_pressure;Samples;Min_cycle;Max_cycle;Signal;HPM_P1;HPM_P2
2021/05/12 00:02:01;;;;;;;;;;;;;;;19.04;67.22;99003.63;2732772;87;20214;-62
2021/05/12 00:06:03;;;;;;;;;;;;;;;18.89;67.59;99010.59;2761766;86;21022;-61
2021/05/12 00:10:07;;;;;;;;;;;;;;;18.88;67.56;99026.45;2761926;86;20194;-61
2021/05/12 00:14:09;;;;;;;;;;;;;;;18.89;67.73;99021.37;2761931;86;20158;-62
2021/05/12 00:18:17;;;;;;;;;;;;;;;18.87;67.83;99022.10;2703001;86;20167;-63
2021/05/12 00:22:38;;;;;;;;;;;;;;;18.79;68.26;99027.70;2721472;87;20208;-61
2021/05/12 00:26:20;;;;;;;;;;;;;;;18.76;68.26;99021.39;2686157;88;20167;-61
2021/05/12 00:30:22;;;;;;;;;;;;;;;18.80;67.97;99032.05;2738097;87;20172;-61
2021/05/12 00:34:24;;;;;;;;;;;;;;;18.84;67.87;99030.58;2740703;87;20470;-61
2021/05/12 00:38:27;;;;;;;;;;;;;;;18.86;67.79;99029.84;2740753;87;20208;-61
2021/05/12 00:42:31;;;;;;;;;;;;;;;18.90;67.74;99028.91;2740836;86;20165;-62
2021/05/12 00:46:33;;;;;;;;;;;;;;;18.90;67.77;99027.56;2740686;87;20572;-62
2021/05/12 00:50:36;;;;;;;;;;;;;;;18.80;68.22;99036.09;2740698;86;20169;-62
2021/05/12 00:54:39;;;;;;;;;;;;;;;18.67;68.81;99040.48;2740551;86;20168;-63
2021/05/12 00:58:41;;;;;;;;;;;;;;;18.57;69.32;99050.84;2751093;85;20179;-61
2021/05/12 01:02:42;;;;;;;;;;;;;;;18.45;70.03;99074.87;2821441;84;20237;-61
2021/05/12 01:06:44;;;;;;;;;;;;;;;18.22;70.59;99070.72;2821239;84;20169;-61
2021/05/12 01:10:46;;;;;;;;;;;;;;;18.10;71.00;99069.66;2821261;84;20161;-62
2021/05/12 01:14:52;;;;;;;;;;;;;;;18.07;71.28;99066.05;2821237;84;20173;-62
2021/05/12 01:18:54;;;;;;;;;;;;;;;17.98;72.30;99073.45;2821335;84;20172;-61
2021/05/12 01:22:56;;;;;;;;;;;;;;;17.93;74.27;99076.73;2821349;84;20534;-61
2021/05/12 01:26:57;;;;;;;;;;;;;;;17.82;75.44;99080.86;2821259;84;20161;-63
2021/05/12 01:31:08;;;;;;;;;;;;;;;17.72;76.93;99091.19;2821254;84;20169;-61
2021/05/12 01:35:11;;;;;;;;;;;;;;;17.60;78.65;99084.72;2820529;84;20209;-63
2021/05/12 01:39:14;;;;;;;;;;;;;;;17.56;80.18;99094.53;2821080;84;20178;-60
2021/05/12 01:43:18;;;;;;;;;;;;;;;17.53;81.43;99093.59;2821073;84;20204;-61
2021/05/12 01:47:19;;;;;;;;;;;;;;;17.53;82.15;99102.16;2820975;84;20174;-60
2021/05/12 01:51:20;;;;;;;;;;;;;;;17.56;82.88;99106.63;2820864;84;20177;-61
2021/05/12 01:55:22;;;;;;;;;;;;;;;17.54;83.62;99109.20;2821066;84;20490;-62
2021/05/12 01:59:23;;;;;;;;;;;;;;;17.48;84.25;99117.54;2820542;84;20158;-62
2021/05/12 02:03:26;;;;;;;;;;;;;;;17.48;84.17;99115.38;2820686;84;20196;-61
2021/05/12 02:07:27;;;;;;;;;;;;;;;17.45;84.62;99113.09;2820778;84;20209;-60
2021/05/12 02:11:29;;;;;;;;;;;;;;;17.44;85.00;99114.12;2796081;84;20145;-62
2021/05/12 02:15:30;;;;;;;;;;;;;;;17.41;85.78;99122.06;2820908;84;20141;-60
2021/05/12 02:19:32;;;;;;;;;;;;;;;17.40;86.86;99126.63;2820632;84;20193;-59
2021/05/12 02:23:34;;;;;;;;;;;;;;;17.41;87.27;99135.51;2820724;84;20185;-60
2021/05/12 02:27:37;;;;;;;;;;;;;;;17.41;87.29;99142.23;2820772;84;20189;-62
2021/05/12 02:31:38;;;;;;;;;;;;;;;17.42;87.44;99139.85;2820965;84;20177;-60
2021/05/12 02:35:41;;;;;;;;;;;;;;;17.40;87.44;99142.75;2820795;84;20181;-61
2021/05/12 02:39:42;;;;;;;;;;;;;;;17.34;87.60;99142.72;2816491;84;20162;-60
2021/05/12 02:43:44;;;;;;;;;;;;;;;17.28;87.91;99134.92;2820608;84;20308;-61
2021/05/12 02:47:57;;;;;;;;;;;;;;;17.26;88.02;99136.98;2820715;84;20217;-60
2021/05/12 02:51:48;;;;;;;;;;;;;;;17.24;88.75;99125.61;2816732;84;20193;-60
2021/05/12 02:55:50;;;;;;;;;;;;;;;17.26;89.25;99131.08;2820781;84;20190;-60
2021/05/12 02:59:52;;;;;;;;;;;;;;;17.28;89.22;99138.42;2810467;83;20510;-61
2021/05/12 03:03:53;;;;;;;;;;;;;;;17.28;89.09;99146.48;2798207;85;20187;-61
2021/05/12 03:07:57;;;;;;;;;;;;;;;17.28;89.24;99162.61;2798443;85;20551;-62
2021/05/12 03:11:58;;;;;;;;;;;;;;;17.24;89.67;99161.35;2798261;85;20178;-60
2021/05/12 03:16:02;;;;;;;;;;;;;;;17.26;89.94;99166.02;2798234;85;20198;-60
2021/05/12 03:20:05;;;;;;;;;;;;;;;17.28;89.94;99169.33;2798992;85;20506;-61
2021/05/12 03:24:07;;;;;;;;;;;;;;;17.32;89.96;99176.50;2818744;83;20181;-61
2021/05/12 03:28:09;;;;;;;;;;;;;;;17.38;89.80;99185.10;2831771;83;20188;-60
2021/05/12 03:32:10;;;;;;;;;;;;;;;17.40;89.39;99191.64;2846006;83;20164;-61
2021/05/12 03:36:13;;;;;;;;;;;;;;;17.38;88.83;99186.98;2846117;83;20188;-61
2021/05/12 03:40:16;;;;;;;;;;;;;;;17.35;88.79;99190.06;2845982;83;20156;-61
2021/05/12 03:44:17;;;;;;;;;;;;;;;17.32;89.23;99189.12;2846083;83;20201;-61
2021/05/12 03:48:27;;;;;;;;;;;;;;;17.34;89.73;99187.06;2846100;83;20196;-63
2021/05/12 03:52:31;;;;;;;;;;;;;;;17.35;89.90;99189.53;2846070;83;20168;-61
2021/05/12 03:56:33;;;;;;;;;;;;;;;17.43;90.32;99195.27;2845745;83;20172;-60
2021/05/12 04:00:35;;;;;;;;;;;;;;;17.54;90.22;99200.11;2858979;83;20313;-61
2021/05/12 04:04:37;;;;;;;;;;;;;;;17.66;90.21;99202.22;2869821;83;20186;-62
2021/05/12 04:08:39;;;;;;;;;;;;;;;17.88;90.43;99196.73;2869909;83;20179;-61
2021/05/12 04:12:42;;;;;;;;;;;;;;;18.25;90.52;99193.27;2870334;83;20163;-61
2021/05/12 04:16:47;;;;;;;;;;;;;;;18.85;88.65;99199.27;2843513;83;20169;-62
2021/05/12 04:20:48;;;;;;;;;;;;;;;19.41;86.59;99202.56;2817767;84;20142;-62
2021/05/12 04:24:51;;;;;;;;;;;;;;;19.86;83.84;99201.02;2802393;84;20207;-60
2021/05/12 04:28:54;;;;;;;;;;;;;;;20.30;82.22;99195.83;2793139;84;20149;-61
2021/05/12 04:32:58;;;;;;;;;;;;;;;20.64;80.72;99195.95;2822516;84;20158;-64
2021/05/12 04:36:59;;;;;;;;;;;;;;;21.00;79.60;99198.17;2805349;84;20195;-60
2021/05/12 04:41:01;;;;;;;;;;;;;;;21.19;77.57;99200.41;2827125;83;20163;-60
2021/05/12 04:45:04;;;;;;;;;;;;;;;21.38;77.23;99201.25;2858373;83;20195;-62
2021/05/12 04:49:07;;;;;;;;;;;;;;;21.68;76.90;99210.84;2871434;83;20163;-62
2021/05/12 04:53:10;;;;;;;;;;;;;;;21.92;76.07;99212.88;2842370;83;20530;-60
2021/05/12 04:57:12;;;;;;;;;;;;;;;22.15;74.25;99215.40;2838670;83;20179;-61
2021/05/12 05:01:14;;;;;;;;;;;;;;;22.36;74.03;99219.50;2871977;83;20159;-64
2021/05/12 05:05:17;;;;;;;;;;;;;;;22.57;73.46;99224.14;2872018;83;20151;-62
2021/05/12 05:09:22;;;;;;;;;;;;;;;22.79;72.24;99234.73;2871827;83;20171;-61
2021/05/12 05:13:27;;;;;;;;;;;;;;;22.89;71.91;99227.39;2847424;83;20187;-61
2021/05/12 05:17:31;;;;;;;;;;;;;;;22.79;71.76;99230.67;2872127;83;20207;-61
2021/05/12 05:21:34;;;;;;;;;;;;;;;22.60;71.50;99234.52;2871982;83;20194;-61
2021/05/12 05:25:35;;;;;;;;;;;;;;;22.27;73.50;99220.35;2872181;83;20163;-63
2021/05/12 05:29:37;;;;;;;;;;;;;;;22.20;73.40;99230.42;2867241;83;20197;-61
2021/05/12 05:33:39;;;;;;;;;;;;;;;21.67;74.51;99240.86;2840634;83;20173;-62
2021/05/12 05:37:41;;;;;;;;;;;;;;;21.20;76.00;99235.86;2863562;83;20211;-62
2021/05/12 05:41:42;;;;;;;;;;;;;;;20.86;77.29;99233.44;2862997;83;20535;-61
2021/05/12 05:45:44;;;;;;;;;;;;;;;20.94;77.85;99223.69;2833951;83;20142;-61
2021/05/12 05:49:48;;;;;;;;;;;;;;;20.86;77.93;99232.59;2823136;84;20181;-61
2021/05/12 05:53:50;;;;;;;;;;;;;;;20.58;78.39;99236.50;2860525;83;20163;-60
2021/05/12 05:57:52;;;;;;;;;;;;;;;20.48;78.87;99234.28;2823087;83;20194;-62
2021/05/12 06:01:56;;;;;;;;;;;;;;;20.39;79.45;99239.11;2833310;83;20156;-62
2021/05/12 06:05:58;;;;;;;;;;;;;;;20.22;79.66;99241.45;2847521;83;20523;-63
2021/05/12 06:09:59;;;;;;;;;;;;;;;20.25;80.33;99239.16;2863881;83;20155;-61
2021/05/12 06:14:02;;;;;;;;;;;;;;;20.63;80.21;99232.08;2753897;85;20169;-61
2021/05/12 06:18:04;;;;;;;;;;;;;;;20.93;79.24;99235.55;2867682;83;20214;-63
2021/05/12 06:22:05;;;;;;;;;;;;;;;21.11;79.13;99233.96;2847153;83;20198;-62
2021/05/12 06:26:21;;;;;;;;;;;;;;;21.17;78.02;99234.42;2845858;83;20555;-62
2021/05/12 06:30:23;;;;;;;;;;;;;;;21.07;77.18;99236.81;2862776;83;20496;-63
2021/05/12 06:34:25;;;;;;;;;;;;;;;21.04;77.15;99242.12;2846730;83;20191;-61
2021/05/12 06:38:28;;;;;;;;;;;;;;;20.86;77.62;99245.60;2845661;83;20185;-62
2021/05/12 06:42:30;;;;;;;;;;;;;;;20.73;78.18;99249.16;2847395;83;20171;-61
2021/05/12 06:46:32;;;;;;;;;;;;;;;20.65;78.06;99251.63;2830509;83;20193;-61
2021/05/12 06:50:33;;;;;;;;;;;;;;;20.67;78.93;99251.40;2852978;83;20145;-63
2021/05/12 06:54:35;;;;;;;;;;;;;;;20.84;79.93;99251.75;2842611;83;20209;-63
2021/05/12 06:58:40;;;;;;;;;;;;;;;20.94;78.99;99250.72;2815727;84;20165;-61
2021/05/12 07:02:41;;;;;;;;;;;;;;;20.78;79.57;99249.88;2830513;83;20167;-61
2021/05/12 07:06:44;;;;;;;;;;;;;;;20.54;80.29;99265.81;2839634;83;20166;-62
2021/05/12 07:10:45;;;;;;;;;;;;;;;20.45;81.39;99263.08;2852710;83;20187;-61
2021/05/12 07:14:48;;;;;;;;;;;;;;;20.51;81.74;99263.55;2837360;83;20159;-62
2021/05/12 07:18:49;;;;;;;;;;;;;;;20.57;81.85;99261.33;2863995;83;20164;-61
2021/05/12 07:22:51;;;;;;;;;;;;;;;20.56;81.09;99269.13;2847360;83;20181;-62
2021/05/12 07:26:53;;;;;;;;;;;;;;;20.36;81.71;99280.05;2858002;83;20230;-64
2021/05/12 07:30:54;;;;;;;;;;;;;;;20.31;81.69;99282.03;2857929;83;20175;-62
2021/05/12 07:34:58;;;;;;;;;;;;;;;20.36;81.43;99281.41;2832475;83;20134;-61
2021/05/12 07:39:00;;;;;;;;;;;;;;;20.36;80.03;99281.41;2863896;83;20187;-63
2021/05/12 07:43:05;;;;;;;;;;;;;;;20.43;81.05;99283.53;2846524;83;20169;-61
2021/05/12 07:47:06;;;;;;;;;;;;;;;20.33;79.86;99289.91;2854244;83;20192;-61
2021/05/12 07:51:08;;;;;;;;;;;;;;;20.37;81.06;99283.87;2857021;83;20145;-61
2021/05/12 07:55:10;;;;;;;;;;;;;;;20.59;81.48;99280.03;2845617;83;20524;-63
2021/05/12 07:59:12;;;;;;;;;;;;;;;20.76;79.82;99287.94;2857092;83;20194;-62
2021/05/12 08:03:14;;;;;;;;;;;;;;;20.79;79.96;99286.66;2841748;83;20227;-63
2021/05/12 08:07:16;;;;;;;;;;;;;;;20.88;79.11;99281.34;2842049;83;20179;-62
2021/05/12 08:11:20;;;;;;;;;;;;;;;20.94;78.20;99281.81;2834824;83;20155;-62
2021/05/12 08:15:21;;;;;;;;;;;;;;;20.95;78.03;99285.35;2838281;83;20198;-62
2021/05/12 08:19:22;;;;;;;;;;;;;;;20.93;77.42;99280.66;2852864;83;20174;-62
2021/05/12 08:23:24;;;;;;;;;;;;;;;20.80;77.12;99285.64;2841987;83;20468;-62
2021/05/12 08:27:26;;;;;;;;;;;;;;;20.61;77.30;99286.86;2832617;83;20198;-62
2021/05/12 08:31:29;;;;;;;;;;;;;;;20.51;78.20;99283.27;2839340;83;20185;-62
2021/05/12 08:35:31;;;;;;;;;;;;;;;20.45;78.73;99280.63;2846431;83;20201;-62
2021/05/12 08:39:33;;;;;;;;;;;;;;;20.39;78.13;99297.98;2832049;83;20621;-63
2021/05/12 08:43:34;;;;;;;;;;;;;;;20.30;77.70;99288.98;2824004;83;20157;-64
2021/05/12 08:47:37;;;;;;;;;;;;;;;20.40;78.97;99286.67;2844796;83;20158;-63
2021/05/12 08:51:40;;;;;;;;;;;;;;;20.46;77.55;99293.09;2834221;83;20187;-63
2021/05/12 08:55:41;;;;;;;;;;;;;;;20.55;77.39;99285.03;2847409;83;20158;-63
2021/05/12 08:59:44;;;;;;;;;;;;;;;20.52;78.67;99285.47;2829815;83;20165;-63
2021/05/12 09:03:46;;;;;;;;;;;;;;;20.46;79.33;99284.98;2841669;83;20207;-62
2021/05/12 09:07:48;;;;;;;;;;;;;;;20.41;79.86;99289.68;2844951;83;20322;-61
2021/05/12 09:11:50;;;;;;;;;;;;;;;20.46;80.64;99294.44;2832565;83;20152;-62
2021/05/12 09:15:51;;;;;;;;;;;;;;;20.48;80.93;99292.35;2825060;83;20521;-60
2021/05/12 09:19:53;;;;;;;;;;;;;;;20.53;80.70;99294.69;2836919;83;20160;-61
2021/05/12 09:23:54;;;;;;;;;;;;;;;20.52;80.44;99301.14;2822153;83;20173;-62
2021/05/12 09:28:15;;;;;;;;;;;;;;;20.46;79.98;99293.91;2837835;83;20187;-62
2021/05/12 09:32:19;;;;;;;;;;;;;;;20.33;80.70;99285.34;2847185;83;20217;-62
2021/05/12 09:36:28;;;;;;;;;;;;;;;20.26;81.03;99292.66;2841920;83;20161;-62
2021/05/12 09:40:29;;;;;;;;;;;;;;;20.28;81.98;99286.52;2838375;83;20209;-62
2021/05/12 09:44:32;;;;;;;;;;;;;;;20.30;81.08;99276.33;2840661;83;20215;-62
2021/05/12 09:48:33;;;;;;;;;;;;;;;20.37;82.75;99280.35;2831074;83;20213;-62
2021/05/12 09:52:34;;;;;;;;;;;;;;;20.52;82.80;99281.41;2835852;83;20167;-61
2021/05/12 09:56:43;;;;;;;;;;;;;;;20.64;81.48;99285.09;2856430;83;20175;-62
2021/05/12 10:00:49;;;;;;;;;;;;;;;20.78;80.80;99279.59;2834492;83;20136;-61
2021/05/12 10:05:00;;;;;;;;;;;;;;;20.88;79.97;99270.53;2850529;83;20155;-60
2021/05/12 10:09:05;;;;;;;;;;;;;;;20.93;80.56;99272.05;2854042;83;20171;-61
2021/05/12 10:13:08;;;;;;;;;;;;;;;21.04;80.08;99273.75;2864661;83;20171;-61
2021/05/12 10:17:12;;;;;;;;;;;;;;;21.02;78.98;99271.77;2864254;83;20159;-61
2021/05/12 10:21:14;;;;;;;;;;;;;;;21.08;79.56;99279.02;2823217;83;20158;-61
2021/05/12 10:25:16;;;;;;;;;;;;;;;21.14;78.60;99278.13;2816281;84;20185;-61
2021/05/12 10:29:19;;;;;;;;;;;;;;;21.35;78.42;99280.98;2816373;84;20210;-61
2021/05/12 10:33:46;;;;;;;;;;;;;;;21.44;78.18;99277.47;2816234;84;20189;-62
2021/05/12 10:37:47;;;;;;;;;;;;;;;21.58;76.49;99281.39;2816369;84;20165;-61
2021/05/12 10:41:50;;;;;;;;;;;;;;;21.55;76.87;99281.33;2816110;84;20189;-61
2021/05/12 10:46:06;;;;;;;;;;;;;;;21.54;77.39;99282.38;2834373;83;20149;-61
2021/05/12 10:50:07;;;;;;;;;;;;;;;21.62;76.15;99289.38;2846918;83;20144;-60
2021/05/12 10:54:09;;;;;;;;;;;;;;;21.70;76.17;99286.41;2838231;83;20193;-61
2021/05/12 10:58:16;;;;;;;;;;;;;;;21.85;76.12;99291.98;2832119;83;20199;-61
2021/05/12 11:02:19;;;;;;;;;;;;;;;21.81;77.07;99289.73;2845240;82;20207;-61
2021/05/12 11:06:24;;;;;;;;;;;;;;;21.86;75.55;99285.52;2839540;83;20158;-61
2021/05/12 11:10:26;;;;;;;;;;;;;;;21.91;76.13;99285.67;2845863;83;20185;-61
2021/05/12 11:14:31;;;;;;;;;;;;;;;21.96;76.16;99285.81;2854553;83;20136;-60
2021/05/12 11:18:45;;;;;;;;;;;;;;;21.90;75.83;99284.02;2848850;83;20231;-61
2021/05/12 11:22:52;;;;;;;;;;;;;;;21.74;76.37;99293.02;2842453;83;20170;-61
2021/05/12 11:27:15;;;;;;;;;;;;;;;21.58;75.65;99282.73;2819324;79;20527;-63
2021/05/12 11:35:34;;;;;;;;;;;;;;;21.52;77.03;99275.82;2702717;88;20207;-61
2021/05/12 11:39:36;;;;;;;;;;;;;;;21.71;76.45;99273.69;2702967;87;20186;-61
2021/05/12 11:43:50;;;;;;;;;;;;;;;21.73;76.78;99262.14;2702821;87;20522;-62
2021/05/12 11:47:58;;;;;;;;;;;;;;;21.93;74.88;99261.91;2702745;88;20159;-61
2021/05/12 11:52:00;;;;;;;;;;;;;;;22.09;75.26;99261.81;2702848;87;20163;-61
2021/05/12 11:56:02;;;;;;;;;;;;;;;22.06;74.90;99261.75;2702886;88;20147;-61
2021/05/12 12:00:08;;;;;;;;;;;;;;;22.05;75.86;99261.45;2703142;87;20167;-61
2021/05/12 12:04:23;;;;;;;;;;;;;;;22.05;75.18;99256.05;2702748;88;20143;-61
2021/05/12 12:08:23;;;;;;;;;;;;;;;22.18;75.13;99242.02;2702294;88;20195;-62
2021/05/12 12:12:25;;;;;;;;;;;;;;;22.35;74.29;99238.17;2703119;87;20179;-62
2021/05/12 12:16:26;;;;;;;;;;;;;;;22.50;75.53;99227.78;2701880;87;20540;-62
2021/05/12 12:20:32;;;;;;;;;;;;;;;22.64;74.10;99222.98;2700850;87;20143;-63
2021/05/12 12:24:34;;;;;;;;;;;;;;;22.74;74.57;99222.42;2701154;88;20222;-62
2021/05/12 12:28:36;;;;;;;;;;;;;;;22.82;72.15;99228.04;2662349;87;20213;-62
2021/05/12 12:32:38;;;;;;;;;;;;;;;22.70;71.94;99236.15;2643855;89;20183;-63
2021/05/12 12:36:55;;;;;;;;;;;;;;;22.53;73.14;99238.16;2644383;89;20507;-62
2021/05/12 12:40:57;;;;;;;;;;;;;;;22.46;74.44;99224.37;2667843;89;20188;-63
2021/05/12 12:45:05;;;;;;;;;;;;;;;22.39;74.18;99215.78;2640686;90;20187;-63
2021/05/12 12:49:07;;;;;;;;;;;;;;;22.52;75.71;99209.41;2685724;88;20175;-63
2021/05/12 12:53:11;;;;;;;;;;;;;;;22.59;73.48;99206.57;2685375;88;20204;-63
2021/05/12 12:57:12;;;;;;;;;;;;;;;22.75;73.98;99216.45;2687018;88;20180;-63
2021/05/12 13:01:33;;;;;;;;;;;;;;;22.64;73.48;99219.44;2686794;88;20156;-64
2021/05/12 13:05:40;;;;;;;;;;;;;;;22.85;73.81;99210.46;2687371;88;20143;-62
2021/05/12 13:09:41;;;;;;;;;;;;;;;22.99;73.29;99216.48;2687211;88;20156;-62
2021/05/12 13:13:49;;;;;;;;;;;;;;;23.05;72.67;99208.25;2687651;88;20168;-62
2021/05/12 13:17:55;;;;;;;;;;;;;;;23.01;71.13;99202.19;2705746;87;20149;-62
2021/05/12 13:21:58;;;;;;;;;;;;;;;22.88;70.55;99204.05;2687551;88;20176;-61
2021/05/12 13:26:02;;;;;;;;;;;;;;;22.68;72.46;99198.94;2671794;88;20212;-65
2021/05/12 13:30:04;;;;;;;;;;;;;;;22.84;73.14;99187.97;2729208;85;20509;-63
2021/05/12 13:34:10;;;;;;;;;;;;;;;23.01;72.17;99188.63;2742728;87;20193;-63
2021/05/12 13:38:12;;;;;;;;;;;;;;;23.07;71.95;99179.00;2744695;87;20171;-64
2021/05/12 13:42:13;;;;;;;;;;;;;;;23.14;71.62;99158.55;2742845;87;20173;-64
2021/05/12 13:46:14;;;;;;;;;;;;;;;23.18;71.79;99154.84;2743242;85;20149;-63
2021/05/12 13:50:24;;;;;;;;;;;;;;;23.23;72.55;99154.95;2741178;87;20161;-64
2021/05/12 13:54:25;;;;;;;;;;;;;;;23.31;71.94;99151.09;2740583;85;20220;-66
2021/05/12 13:58:39;;;;;;;;;;;;;;;23.42;71.54;99131.78;2737023;85;20220;-63
2021/05/12 14:06:32;;;;;;;;;;;;;;;23.35;69.98;99141.40;2726766;85;20217;-67
2021/05/12 14:10:37;;;;;;;;;;;;;;;23.45;72.65;99155.20;2737889;85;20305;-64
2021/05/12 14:18:58;;;;;;;;;;;;;;;23.84;70.42;99158.69;2730041;85;20184;-65
2021/05/12 14:23:00;;;;;;;;;;;;;;;23.86;69.31;99165.25;2737643;85;20173;-64
2021/05/12 14:27:03;;;;;;;;;;;;;;;23.66;70.67;99161.05;2723050;86;20164;-65
2021/05/12 14:31:05;;;;;;;;;;;;;;;23.72;71.84;99161.44;2740623;86;20185;-64
2021/05/12 14:35:07;;;;;;;;;;;;;;;23.74;71.61;99170.17;2724762;85;20189;-63
2021/05/12 14:39:08;;;;;;;;;;;;;;;23.48;69.77;99171.52;2733223;86;20331;-66
2021/05/12 14:43:10;;;;;;;;;;;;;;;23.07;70.12;99172.77;2737261;86;20157;-65
2021/05/12 14:47:11;;;;;;;;;;;;;;;22.67;71.92;99174.25;2733696;86;20517;-63
2021/05/12 14:51:17;;;;;;;;;;;;;;;22.43;72.50;99166.05;2721334;86;20161;-65
2021/05/12 15:03:33;;;;;;;;;;;;;;;22.48;73.18;99168.09;2723944;86;20188;-62
2021/05/12 15:07:28;;;;;;;;;;;;;;;22.37;73.67;99156.95;2722647;86;20509;-62
2021/05/12 15:11:30;;;;;;;;;;;;;;;22.40;73.63;99149.74;2724026;86;20148;-62
2021/05/12 15:15:31;;;;;;;;;;;;;;;22.31;72.15;99147.05;2724021;86;20185;-62
2021/05/12 15:19:33;;;;;;;;;;;;;;;22.10;72.84;99147.87;2723835;86;20165;-65
2021/05/12 15:23:34;;;;;;;;;;;;;;;22.01;74.86;99145.71;2723896;86;20157;-63
2021/05/12 15:27:36;;;;;;;;;;;;;;;21.97;75.43;99150.75;2747115;85;20490;-64
2021/05/12 15:31:38;;;;;;;;;;;;;;;22.03;75.47;99147.14;2744231;86;20171;-62
2021/05/12 15:35:41;;;;;;;;;;;;;;;22.07;74.90;99152.91;2724393;86;20172;-61
2021/05/12 15:39:44;;;;;;;;;;;;;;;22.03;74.90;99159.84;2724464;86;20169;-61
2021/05/12 15:43:46;;;;;;;;;;;;;;;21.99;74.83;99160.01;2726808;86;20185;-62
2021/05/12 15:47:47;;;;;;;;;;;;;;;21.94;75.09;99163.39;2724737;86;20151;-61
2021/05/12 15:51:52;;;;;;;;;;;;;;;21.85;75.97;99178.30;2737929;86;20159;-61
2021/05/12 15:55:56;;;;;;;;;;;;;;;21.71;76.57;99172.20;2725482;86;20165;-62
2021/05/12 16:00:04;;;;;;;;;;;;;;;21.53;75.96;99163.84;2724064;86;20197;-61
2021/05/12 16:04:06;;;;;;;;;;;;;;;21.38;76.42;99149.35;2703239;88;20156;-61
2021/05/12 16:08:07;;;;;;;;;;;;;;;21.22;76.89;99137.77;2723744;86;20145;-60
2021/05/12 16:12:13;;;;;;;;;;;;;;;21.09;76.60;99126.57;2723630;86;20169;-61
2021/05/12 16:16:48;;;;;;;;;;;;;;;20.97;77.33;99134.05;2700284;87;20189;-61
2021/05/12 16:20:43;;;;;;;;;;;;;;;20.95;77.67;99128.05;2731790;86;20496;-62
2021/05/12 16:24:50;;;;;;;;;;;;;;;20.94;77.55;99125.04;2746504;86;20165;-61
2021/05/12 16:28:50;;;;;;;;;;;;;;;20.75;78.64;99124.66;2738026;86;20202;-59
2021/05/12 16:32:52;;;;;;;;;;;;;;;20.47;77.81;99124.59;2728378;86;20169;-61
2021/05/12 16:36:55;;;;;;;;;;;;;;;20.29;79.27;99122.12;2716751;87;21129;-59
2021/05/12 16:40:57;;;;;;;;;;;;;;;20.19;79.71;99118.55;2705814;87;20162;-61
2021/05/12 16:45:07;;;;;;;;;;;;;;;19.99;79.12;99120.00;2705838;86;20193;-62
2021/05/12 16:49:15;;;;;;;;;;;;;;;19.78;78.90;99128.69;2708663;86;20240;-61
2021/05/12 16:53:21;;;;;;;;;;;;;;;19.64;79.65;99131.13;2717952;86;20173;-61
2021/05/12 16:57:34;;;;;;;;;;;;;;;19.60;80.38;99116.42;2725583;87;20185;-61
2021/05/12 17:01:40;;;;;;;;;;;;;;;19.61;79.84;99130.22;2724545;87;20181;-61
2021/05/12 17:05:55;;;;;;;;;;;;;;;19.58;80.04;99159.81;2713919;87;20218;-61
2021/05/12 17:10:00;;;;;;;;;;;;;;;19.55;79.78;99175.89;2722119;87;20181;-63
2021/05/12 17:14:02;;;;;;;;;;;;;;;19.42;80.29;99165.13;2724127;87;20168;-60
2021/05/12 17:18:05;;;;;;;;;;;;;;;19.29;80.95;99162.48;2724103;87;20166;-60
2021/05/12 17:22:06;;;;;;;;;;;;;;;19.15;81.52;99119.38;2724056;87;20510;-60
2021/05/12 17:26:15;;;;;;;;;;;;;;;19.03;82.09;99114.30;2724492;86;20193;-60
2021/05/12 17:30:16;;;;;;;;;;;;;;;18.91;82.59;99120.32;2729113;87;20181;-60
2021/05/12 17:34:22;;;;;;;;;;;;;;;18.78;83.05;99135.98;2722849;86;20171;-61
2021/05/12 17:38:23;;;;;;;;;;;;;;;18.68;84.01;99166.02;2688860;88;20503;-60
2021/05/12 17:42:25;;;;;;;;;;;;;;;18.55;85.06;99183.51;2724095;86;20177;-61
2021/05/12 17:46:26;;;;;;;;;;;;;;;18.45;85.73;99181.72;2733906;85;20675;-62
2021/05/12 17:50:28;;;;;;;;;;;;;;;18.33;86.45;99133.04;2733494;85;20254;-62
2021/05/12 17:54:29;;;;;;;;;;;;;;;18.19;87.06;99102.59;2733416;87;20185;-62
2021/05/12 17:58:31;;;;;;;;;;;;;;;18.07;87.80;99148.92;2733856;87;20193;-62
2021/05/12 18:02:32;;;;;;;;;;;;;;;17.99;88.51;99174.64;2733045;87;20569;-62
2021/05/12 18:06:46;;;;;;;;;;;;;;;17.90;88.90;99164.58;2732866;85;20205;-62
2021/05/12 18:19:16;;;;;;;;;;;;;;;17.55;91.57;99180.26;2732651;85;20189;-61
2021/05/12 18:23:18;;;;;;;;;;;;;;;17.45;92.79;99179.77;2733174;85;20229;-61
2021/05/12 18:27:19;;;;;;;;;;;;;;;17.33;93.65;99173.30;2733320;85;20568;-61
2021/05/12 18:31:22;;;;;;;;;;;;;;;17.27;93.48;99163.64;2725822;87;20217;-60
2021/05/12 18:36:10;;;;;;;;;;;;;;;17.30;93.59;99147.64;2723836;87;20185;-60
2021/05/12 18:39:42;;;;;;;;;;;;;;;17.23;93.90;99118.05;2709849;87;20177;-61
2021/05/12 18:43:35;;;;;;;;;;;;;;;17.12;95.02;99084.50;2722526;87;20205;-62
2021/05/12 18:47:46;;;;;;;;;;;;;;;17.03;95.91;99100.98;2723172;86;23359;-61
2021/05/12 18:51:44;;;;;;;;;;;;;;;16.98;95.96;99098.84;2713977;86;20639;-61
2021/05/12 18:55:45;;;;;;;;;;;;;;;17.02;96.00;99106.03;2722319;86;20181;-61
2021/05/12 18:59:47;;;;;;;;;;;;;;;17.05;95.96;99115.04;2721824;87;20181;-61
2021/05/12 19:03:49;;;;;;;;;;;;;;;17.04;96.03;99117.41;2721168;86;20182;-61
2021/05/12 19:12:06;;;;;;;;;;;;;;;17.07;95.96;99119.70;2710921;86;20186;-62
2021/05/12 19:16:09;;;;;;;;;;;;;;;17.12;95.81;99158.91;2721882;86;20173;-62
2021/05/12 19:41:22;;;;;;;;;;;;;;;17.35;94.75;99243.28;2721377;86;20162;-62
2021/05/12 19:45:24;;;;;;;;;;;;;;;17.43;94.85;99228.88;2723106;86;20177;-63
2021/05/12 19:49:25;;;;;;;;;;;;;;;17.46;94.45;99181.95;2722163;87;20182;-64
2021/05/12 19:53:27;;;;;;;;;;;;;;;17.41;94.49;99205.39;2722809;86;20173;-63
2021/05/12 20:01:35;;;;;;;;;;;;;;;17.28;94.69;99194.86;2722442;86;20561;-63
2021/05/12 20:05:43;;;;;;;;;;;;;;;17.23;94.76;99171.78;2722492;86;20153;-62
2021/05/12 20:14:03;;;;;;;;;;;;;;;16.77;96.86;99127.41;2722081;86;20173;-64
2021/05/12 20:18:05;;;;;;;;;;;;;;;16.58;97.80;99133.45;2710705;86;20210;-63
2021/05/12 20:22:06;;;;;;;;;;;;;;;16.48;98.52;99166.83;2714558;86;20169;-62
2021/05/12 20:26:08;;;;;;;;;;;;;;;16.44;99.23;99156.66;2716842;86;20699;-63
2021/05/12 20:30:12;;;;;;;;;;;;;;;16.42;99.55;99140.24;2722679;86;20157;-62
2021/05/12 20:38:33;;;;;;;;;;;;;;;16.44;99.54;99139.22;2726247;85;20241;-63
2021/05/12 20:42:35;;;;;;;;;;;;;;;16.44;99.36;99113.72;2710243;87;20196;-63
2021/05/12 20:46:36;;;;;;;;;;;;;;;16.42;99.50;99118.77;2719827;85;20201;-63
2021/05/12 20:50:39;;;;;;;;;;;;;;;16.44;99.26;99123.97;2723661;85;20208;-62
2021/05/12 20:54:40;;;;;;;;;;;;;;;16.46;99.22;99126.44;2721374;85;20173;-61
2021/05/12 20:58:42;;;;;;;;;;;;;;;16.49;99.07;99177.89;2716970;87;20189;-62
2021/05/12 21:02:43;;;;;;;;;;;;;;;16.58;99.08;99234.12;2720192;85;20197;-61
2021/05/12 21:06:45;;;;;;;;;;;;;;;16.59;99.10;99243.34;2725358;85;20177;-61
2021/05/12 21:10:47;;;;;;;;;;;;;;;16.63;99.21;99220.98;2719631;87;20200;-61
2021/05/12 21:14:48;;;;;;;;;;;;;;;16.72;98.92;99221.16;2706895;87;20209;-60
2021/05/12 21:18:50;;;;;;;;;;;;;;;16.80;98.50;99226.91;2717970;87;20205;-61
2021/05/12 21:27:11;;;;;;;;;;;;;;;16.74;97.41;99186.06;2726544;85;20193;-61
2021/05/12 21:31:19;;;;;;;;;;;;;;;16.59;97.96;99167.33;2729101;87;20810;-61
2021/05/12 21:35:20;;;;;;;;;;;;;;;16.51;98.60;99166.45;2728487;85;20197;-61
2021/05/12 21:39:22;;;;;;;;;;;;;;;16.46;98.74;99161.33;2713420;87;20194;-61
2021/05/12 21:43:23;;;;;;;;;;;;;;;16.37;99.23;99138.66;2722310;87;20169;-61
2021/05/12 21:47:26;;;;;;;;;;;;;;;16.41;99.41;99125.16;2722319;87;20232;-61
2021/05/12 21:51:28;;;;;;;;;;;;;;;16.47;99.25;99138.83;2717070;87;20169;-61
2021/05/12 21:55:29;;;;;;;;;;;;;;;16.53;98.77;99163.05;2722419;87;20319;-61
2021/05/12 21:59:31;;;;;;;;;;;;;;;16.58;98.33;99160.30;2721937;87;20212;-60
2021/05/12 22:03:36;;;;;;;;;;;;;;;16.60;98.41;99149.70;2716995;85;20189;-62
2021/05/12 22:25:00;;;;;;;;;;;;;;;16.69;97.24;99165.97;2727733;85;20252;-60
2021/05/12 22:33:20;;;;;;;;;;;;;;;16.74;97.29;99190.09;2710500;85;20209;-61
2021/05/12 22:37:21;;;;;;;;;;;;;;;16.74;97.03;99187.41;2720301;87;20173;-60
2021/05/12 22:41:24;;;;;;;;;;;;;;;16.73;97.06;99196.48;2712493;87;20177;-60